SVBC/BLA METAR and TAF weather

Enter ICAO airport designator
Station Type Date Time Source
SVBC METAR 2020/07/18 17:02 UTC NOAA

SVBC 181702Z AUTO 00000KT NCD 0/// Q////


Station Type Date Time Source
SVBC Decoded METAR 2020/07/18 17:02 UTC NOAA

Barcelona, Venezuela (SVBC) 10-07N 064-41W 7M
Jul 18, 2020 - 01:02 PM EDT / 2020.07.18 1702 UTC
Wind: Calm:0
ob: SVBC 181702Z AUTO 00000KT NCD 0/// Q////
cycle: 17

Station Type Date Time Source
SVBC TAF 2020/09/19 18:09 UTC NOAA

TAF SVBC 191600Z 1918/2018 05004KT 9999 FEW016 TX33/1918Z TN23/1808Z
BECMG 1918/1922 09004KT 9999 SCT016

Example: see airport list